KALO

Waterloo Regional Airport

Waterloo, Iowa, USA
KALO 171120Z 1712/1812 VRB05KT P6SM SKC
Issued Valid From Valid To
Dec-17 @ 11:20 UTC
(2 hours ago)
Dec-17 @ 12:00 UTC
(an hour ago)
Dec-18 @ 12:00 UTC
(in 23 hours)
Dec-17 @ 12:00 to Dec-18 @ 12:00
KALO 171120Z 1712/1812 VRB05KT P6SM SKC
Wind Visibility Clouds
Variable at 5 knots Greater than 6 miles
  • Clear skies
KALO 171120Z 1712/1812 VRB05KT P6SM SKC
Issued Dec-17 @ 11:20 UTC
(2 hours ago)
Valid From Dec-17 @ 12:00 UTC
(an hour ago)
Valid To Dec-18 @ 12:00 UTC
(in 23 hours)
Dec-17 @ 12:00 - Dec-18 @ 12:00
Wind Visibility
Variable at 5 knots Greater than 6 miles
Clouds
  • Clear skies